sensor_id;sensor_type;location;lat;lon;timestamp;temperature;humidity
678;DHT22;321;48.814;9.132;2023-02-04T00:01:43;8.70;99.90
678;DHT22;321;48.814;9.132;2023-02-04T00:04:08;8.70;99.90
678;DHT22;321;48.814;9.132;2023-02-04T00:06:34;8.70;99.90
678;DHT22;321;48.814;9.132;2023-02-04T00:08:59;8.60;99.90
678;DHT22;321;48.814;9.132;2023-02-04T00:11:25;8.70;99.90
678;DHT22;321;48.814;9.132;2023-02-04T00:13:50;8.70;99.90
678;DHT22;321;48.814;9.132;2023-02-04T00:16:16;8.60;99.90
678;DHT22;321;48.814;9.132;2023-02-04T00:18:41;8.80;99.90
678;DHT22;321;48.814;9.132;2023-02-04T00:21:07;8.70;99.90
678;DHT22;321;48.814;9.132;2023-02-04T00:23:32;8.70;99.90
678;DHT22;321;48.814;9.132;2023-02-04T00:25:58;8.70;99.90
678;DHT22;321;48.814;9.132;2023-02-04T00:28:23;8.60;99.90
678;DHT22;321;48.814;9.132;2023-02-04T00:30:49;8.50;99.90
678;DHT22;321;48.814;9.132;2023-02-04T00:33:14;8.60;99.90
678;DHT22;321;48.814;9.132;2023-02-04T00:35:40;8.60;99.90
678;DHT22;321;48.814;9.132;2023-02-04T00:38:05;8.70;99.90
678;DHT22;321;48.814;9.132;2023-02-04T00:40:32;8.70;99.90
678;DHT22;321;48.814;9.132;2023-02-04T00:42:57;8.70;99.90
678;DHT22;321;48.814;9.132;2023-02-04T00:45:23;8.70;99.90
678;DHT22;321;48.814;9.132;2023-02-04T00:47:49;8.70;99.90
678;DHT22;321;48.814;9.132;2023-02-04T00:50:15;8.70;99.90
678;DHT22;321;48.814;9.132;2023-02-04T00:52:41;8.70;99.90
678;DHT22;321;48.814;9.132;2023-02-04T00:55:07;8.60;99.90
678;DHT22;321;48.814;9.132;2023-02-04T00:57:34;8.60;99.90
678;DHT22;321;48.814;9.132;2023-02-04T01:00:00;8.70;99.90
678;DHT22;321;48.814;9.132;2023-02-04T01:02:28;8.60;99.90
678;DHT22;321;48.814;9.132;2023-02-04T01:04:53;8.70;99.90
678;DHT22;321;48.814;9.132;2023-02-04T01:07:19;8.80;99.90
678;DHT22;321;48.814;9.132;2023-02-04T01:09:44;8.80;99.90
678;DHT22;321;48.814;9.132;2023-02-04T01:12:10;8.70;99.90
678;DHT22;321;48.814;9.132;2023-02-04T01:14:36;8.50;99.90
678;DHT22;321;48.814;9.132;2023-02-04T01:17:01;8.50;99.90
678;DHT22;321;48.814;9.132;2023-02-04T01:19:27;8.50;99.90
678;DHT22;321;48.814;9.132;2023-02-04T01:21:52;8.30;99.90
678;DHT22;321;48.814;9.132;2023-02-04T01:24:18;8.20;99.90
678;DHT22;321;48.814;9.132;2023-02-04T01:26:43;8.30;99.90
678;DHT22;321;48.814;9.132;2023-02-04T01:29:09;8.40;99.90
678;DHT22;321;48.814;9.132;2023-02-04T01:31:35;8.50;99.90
678;DHT22;321;48.814;9.132;2023-02-04T01:34:00;8.50;99.90
678;DHT22;321;48.814;9.132;2023-02-04T01:36:26;8.50;99.90
678;DHT22;321;48.814;9.132;2023-02-04T01:38:52;8.40;99.90
678;DHT22;321;48.814;9.132;2023-02-04T01:41:18;8.20;99.90
678;DHT22;321;48.814;9.132;2023-02-04T01:43:45;8.10;99.90
678;DHT22;321;48.814;9.132;2023-02-04T01:46:11;8.10;99.90
678;DHT22;321;48.814;9.132;2023-02-04T01:48:36;8.20;99.90
678;DHT22;321;48.814;9.132;2023-02-04T01:51:05;8.10;99.90
678;DHT22;321;48.814;9.132;2023-02-04T01:53:32;8.10;99.90
678;DHT22;321;48.814;9.132;2023-02-04T01:55:57;7.90;99.90
678;DHT22;321;48.814;9.132;2023-02-04T01:58:23;7.90;99.90
678;DHT22;321;48.814;9.132;2023-02-04T02:00:49;7.80;99.90
678;DHT22;321;48.814;9.132;2023-02-04T02:03:15;7.80;99.90
678;DHT22;321;48.814;9.132;2023-02-04T02:05:46;7.90;99.90
678;DHT22;321;48.814;9.132;2023-02-04T02:08:13;8.00;99.90
678;DHT22;321;48.814;9.132;2023-02-04T02:10:41;7.90;99.90
678;DHT22;321;48.814;9.132;2023-02-04T02:13:10;7.80;99.90
678;DHT22;321;48.814;9.132;2023-02-04T02:15:36;7.70;99.90
678;DHT22;321;48.814;9.132;2023-02-04T02:18:02;7.80;99.90
678;DHT22;321;48.814;9.132;2023-02-04T02:20:28;7.70;99.90
678;DHT22;321;48.814;9.132;2023-02-04T02:25:47;7.80;99.90
678;DHT22;321;48.814;9.132;2023-02-04T02:28:16;7.70;99.90
678;DHT22;321;48.814;9.132;2023-02-04T02:30:42;7.60;99.90
678;DHT22;321;48.814;9.132;2023-02-04T02:33:10;7.70;99.90
678;DHT22;321;48.814;9.132;2023-02-04T02:35:39;7.70;99.90
678;DHT22;321;48.814;9.132;2023-02-04T02:38:10;7.80;99.90
678;DHT22;321;48.814;9.132;2023-02-04T02:40:36;7.90;99.90
678;DHT22;321;48.814;9.132;2023-02-04T02:43:02;7.90;99.90
678;DHT22;321;48.814;9.132;2023-02-04T02:45:30;7.80;99.90
678;DHT22;321;48.814;9.132;2023-02-04T02:47:58;7.90;99.90
678;DHT22;321;48.814;9.132;2023-02-04T02:50:28;7.80;99.90
678;DHT22;321;48.814;9.132;2023-02-04T02:52:54;7.70;99.90
678;DHT22;321;48.814;9.132;2023-02-04T02:55:22;7.80;99.90
678;DHT22;321;48.814;9.132;2023-02-04T02:57:49;7.80;99.90
678;DHT22;321;48.814;9.132;2023-02-04T03:00:25;7.70;99.90
678;DHT22;321;48.814;9.132;2023-02-04T03:03:00;7.70;99.90
678;DHT22;321;48.814;9.132;2023-02-04T03:05:29;7.80;99.90
678;DHT22;321;48.814;9.132;2023-02-04T03:07:57;7.90;99.90
678;DHT22;321;48.814;9.132;2023-02-04T03:10:22;7.90;99.90
678;DHT22;321;48.814;9.132;2023-02-04T03:12:48;7.90;99.90
678;DHT22;321;48.814;9.132;2023-02-04T03:15:14;7.90;99.90
678;DHT22;321;48.814;9.132;2023-02-04T03:17:40;8.10;99.90
678;DHT22;321;48.814;9.132;2023-02-04T03:20:07;8.10;99.90
678;DHT22;321;48.814;9.132;2023-02-04T03:22:33;8.20;99.90
678;DHT22;321;48.814;9.132;2023-02-04T03:24:58;8.10;99.90
678;DHT22;321;48.814;9.132;2023-02-04T03:27:24;8.10;99.90
678;DHT22;321;48.814;9.132;2023-02-04T03:29:50;8.00;99.90
678;DHT22;321;48.814;9.132;2023-02-04T03:32:16;7.90;99.90
678;DHT22;321;48.814;9.132;2023-02-04T03:34:41;8.00;99.90
678;DHT22;321;48.814;9.132;2023-02-04T03:37:07;8.10;99.90
678;DHT22;321;48.814;9.132;2023-02-04T03:39:33;8.00;99.90
678;DHT22;321;48.814;9.132;2023-02-04T03:41:58;8.00;99.90
678;DHT22;321;48.814;9.132;2023-02-04T03:44:24;8.00;99.90
678;DHT22;321;48.814;9.132;2023-02-04T03:46:53;8.00;99.90
678;DHT22;321;48.814;9.132;2023-02-04T03:49:21;8.00;99.90
678;DHT22;321;48.814;9.132;2023-02-04T03:51:47;8.00;99.90
678;DHT22;321;48.814;9.132;2023-02-04T03:54:12;8.00;99.90
678;DHT22;321;48.814;9.132;2023-02-04T03:56:38;8.10;99.90
678;DHT22;321;48.814;9.132;2023-02-04T03:59:03;8.00;99.90
678;DHT22;321;48.814;9.132;2023-02-04T04:01:29;7.90;99.90
678;DHT22;321;48.814;9.132;2023-02-04T04:03:55;8.00;99.90
678;DHT22;321;48.814;9.132;2023-02-04T04:06:20;8.10;99.90
678;DHT22;321;48.814;9.132;2023-02-04T04:08:46;8.00;99.90
678;DHT22;321;48.814;9.132;2023-02-04T04:11:11;7.90;99.90
678;DHT22;321;48.814;9.132;2023-02-04T04:13:37;7.80;99.90
678;DHT22;321;48.814;9.132;2023-02-04T04:16:03;7.90;99.90
678;DHT22;321;48.814;9.132;2023-02-04T04:18:29;8.00;99.90
678;DHT22;321;48.814;9.132;2023-02-04T04:20:56;8.10;99.90
678;DHT22;321;48.814;9.132;2023-02-04T04:23:21;8.20;99.90
678;DHT22;321;48.814;9.132;2023-02-04T04:25:47;8.30;99.90
678;DHT22;321;48.814;9.132;2023-02-04T04:28:12;8.30;99.90
678;DHT22;321;48.814;9.132;2023-02-04T04:30:38;8.40;99.90
678;DHT22;321;48.814;9.132;2023-02-04T04:33:03;8.40;99.90
678;DHT22;321;48.814;9.132;2023-02-04T04:35:29;8.40;99.90
678;DHT22;321;48.814;9.132;2023-02-04T04:37:54;8.40;99.90
678;DHT22;321;48.814;9.132;2023-02-04T04:40:20;8.30;99.90
678;DHT22;321;48.814;9.132;2023-02-04T04:42:45;8.40;99.90
678;DHT22;321;48.814;9.132;2023-02-04T04:45:11;8.50;99.90
678;DHT22;321;48.814;9.132;2023-02-04T04:47:36;8.60;99.90
678;DHT22;321;48.814;9.132;2023-02-04T04:50:03;8.70;99.90
678;DHT22;321;48.814;9.132;2023-02-04T04:52:28;8.80;99.90
678;DHT22;321;48.814;9.132;2023-02-04T04:54:54;8.60;99.90
678;DHT22;321;48.814;9.132;2023-02-04T04:57:19;8.70;99.90
678;DHT22;321;48.814;9.132;2023-02-04T04:59:45;8.80;99.90
678;DHT22;321;48.814;9.132;2023-02-04T05:02:10;8.80;99.90
678;DHT22;321;48.814;9.132;2023-02-04T05:04:36;8.70;99.90
678;DHT22;321;48.814;9.132;2023-02-04T05:07:02;8.70;99.90
678;DHT22;321;48.814;9.132;2023-02-04T05:09:27;8.70;99.90
678;DHT22;321;48.814;9.132;2023-02-04T05:11:53;8.70;99.90
678;DHT22;321;48.814;9.132;2023-02-04T05:14:18;8.70;99.90
678;DHT22;321;48.814;9.132;2023-02-04T05:16:44;8.60;99.90
678;DHT22;321;48.814;9.132;2023-02-04T05:19:09;8.50;99.90
678;DHT22;321;48.814;9.132;2023-02-04T05:21:35;8.40;99.90
678;DHT22;321;48.814;9.132;2023-02-04T05:24:00;8.40;99.90
678;DHT22;321;48.814;9.132;2023-02-04T05:26:26;8.50;99.90
678;DHT22;321;48.814;9.132;2023-02-04T05:28:52;8.50;99.90
678;DHT22;321;48.814;9.132;2023-02-04T05:31:17;8.40;99.90
678;DHT22;321;48.814;9.132;2023-02-04T05:33:43;8.40;99.90
678;DHT22;321;48.814;9.132;2023-02-04T05:36:08;8.50;99.90
678;DHT22;321;48.814;9.132;2023-02-04T05:38:34;8.40;99.90
678;DHT22;321;48.814;9.132;2023-02-04T05:40:59;8.40;99.90
678;DHT22;321;48.814;9.132;2023-02-04T05:43:25;8.40;99.90
678;DHT22;321;48.814;9.132;2023-02-04T05:45:50;8.40;99.90
678;DHT22;321;48.814;9.132;2023-02-04T05:48:17;8.40;99.90
678;DHT22;321;48.814;9.132;2023-02-04T05:50:42;8.40;99.90
678;DHT22;321;48.814;9.132;2023-02-04T05:53:08;8.40;99.90
678;DHT22;321;48.814;9.132;2023-02-04T05:55:34;8.40;99.90
678;DHT22;321;48.814;9.132;2023-02-04T05:57:59;8.40;99.90
678;DHT22;321;48.814;9.132;2023-02-04T06:00:25;8.30;99.90
678;DHT22;321;48.814;9.132;2023-02-04T06:02:50;8.30;99.90
678;DHT22;321;48.814;9.132;2023-02-04T06:05:16;8.30;99.90
678;DHT22;321;48.814;9.132;2023-02-04T06:07:42;8.30;99.90
678;DHT22;321;48.814;9.132;2023-02-04T06:10:09;8.40;99.90
678;DHT22;321;48.814;9.132;2023-02-04T06:12:35;8.50;99.90
678;DHT22;321;48.814;9.132;2023-02-04T06:15:01;8.40;99.90
678;DHT22;321;48.814;9.132;2023-02-04T06:17:26;8.20;99.90
678;DHT22;321;48.814;9.132;2023-02-04T06:19:52;8.10;99.90
678;DHT22;321;48.814;9.132;2023-02-04T06:22:17;8.20;99.90
678;DHT22;321;48.814;9.132;2023-02-04T06:24:43;8.20;99.90
678;DHT22;321;48.814;9.132;2023-02-04T06:27:08;8.10;99.90
678;DHT22;321;48.814;9.132;2023-02-04T06:29:34;8.10;99.90
678;DHT22;321;48.814;9.132;2023-02-04T06:31:59;8.20;99.90
678;DHT22;321;48.814;9.132;2023-02-04T06:34:25;8.20;99.90
678;DHT22;321;48.814;9.132;2023-02-04T06:36:50;8.30;99.90
678;DHT22;321;48.814;9.132;2023-02-04T06:39:16;8.20;99.90
678;DHT22;321;48.814;9.132;2023-02-04T06:41:42;8.30;99.90
678;DHT22;321;48.814;9.132;2023-02-04T06:44:07;8.10;99.90
678;DHT22;321;48.814;9.132;2023-02-04T06:46:33;8.10;99.90
678;DHT22;321;48.814;9.132;2023-02-04T06:48:58;7.90;99.90
678;DHT22;321;48.814;9.132;2023-02-04T06:51:24;8.00;99.90
678;DHT22;321;48.814;9.132;2023-02-04T06:53:50;8.10;99.90
678;DHT22;321;48.814;9.132;2023-02-04T06:56:16;8.10;99.90
678;DHT22;321;48.814;9.132;2023-02-04T06:58:42;8.20;99.90
678;DHT22;321;48.814;9.132;2023-02-04T07:01:07;8.20;99.90
678;DHT22;321;48.814;9.132;2023-02-04T07:03:33;8.10;99.90
678;DHT22;321;48.814;9.132;2023-02-04T07:05:58;8.30;99.90
678;DHT22;321;48.814;9.132;2023-02-04T07:08:24;8.30;99.90
678;DHT22;321;48.814;9.132;2023-02-04T07:10:50;8.30;99.90
678;DHT22;321;48.814;9.132;2023-02-04T07:13:15;8.40;99.90
678;DHT22;321;48.814;9.132;2023-02-04T07:15:41;8.50;99.90
678;DHT22;321;48.814;9.132;2023-02-04T07:18:06;8.40;99.90
678;DHT22;321;48.814;9.132;2023-02-04T07:20:32;8.40;99.90
678;DHT22;321;48.814;9.132;2023-02-04T07:22:57;8.40;99.90
678;DHT22;321;48.814;9.132;2023-02-04T07:25:23;8.50;99.90
678;DHT22;321;48.814;9.132;2023-02-04T07:27:49;8.50;99.90
678;DHT22;321;48.814;9.132;2023-02-04T07:30:14;8.60;99.90
678;DHT22;321;48.814;9.132;2023-02-04T07:32:40;8.50;99.90
678;DHT22;321;48.814;9.132;2023-02-04T07:35:06;8.40;99.90
678;DHT22;321;48.814;9.132;2023-02-04T07:37:31;8.50;99.90
678;DHT22;321;48.814;9.132;2023-02-04T07:39:57;8.60;99.90
678;DHT22;321;48.814;9.132;2023-02-04T07:42:22;8.50;99.90
678;DHT22;321;48.814;9.132;2023-02-04T07:44:48;8.50;99.90
678;DHT22;321;48.814;9.132;2023-02-04T07:47:13;8.40;99.90
678;DHT22;321;48.814;9.132;2023-02-04T07:49:39;8.50;99.90
678;DHT22;321;48.814;9.132;2023-02-04T07:52:04;8.50;99.90
678;DHT22;321;48.814;9.132;2023-02-04T07:54:30;8.40;99.90
678;DHT22;321;48.814;9.132;2023-02-04T07:56:56;8.50;99.90
678;DHT22;321;48.814;9.132;2023-02-04T07:59:22;8.40;99.90
678;DHT22;321;48.814;9.132;2023-02-04T08:01:47;8.40;99.90
678;DHT22;321;48.814;9.132;2023-02-04T08:04:14;8.50;99.90
678;DHT22;321;48.814;9.132;2023-02-04T08:06:39;8.50;99.90
678;DHT22;321;48.814;9.132;2023-02-04T08:09:05;8.60;99.90
678;DHT22;321;48.814;9.132;2023-02-04T08:11:31;8.60;99.90
678;DHT22;321;48.814;9.132;2023-02-04T08:13:56;8.70;99.90
678;DHT22;321;48.814;9.132;2023-02-04T08:16:22;8.70;99.90
678;DHT22;321;48.814;9.132;2023-02-04T08:18:48;8.80;99.90
678;DHT22;321;48.814;9.132;2023-02-04T08:21:13;8.90;99.90
678;DHT22;321;48.814;9.132;2023-02-04T08:23:39;8.90;99.90
678;DHT22;321;48.814;9.132;2023-02-04T08:26:09;8.90;99.90
678;DHT22;321;48.814;9.132;2023-02-04T08:28:36;8.90;99.90
678;DHT22;321;48.814;9.132;2023-02-04T08:31:03;9.00;99.90
678;DHT22;321;48.814;9.132;2023-02-04T08:33:29;9.10;99.90
678;DHT22;321;48.814;9.132;2023-02-04T08:35:55;9.20;99.90
678;DHT22;321;48.814;9.132;2023-02-04T08:38:20;9.30;99.90
678;DHT22;321;48.814;9.132;2023-02-04T08:40:46;9.30;99.90
678;DHT22;321;48.814;9.132;2023-02-04T08:43:11;9.30;99.90
678;DHT22;321;48.814;9.132;2023-02-04T08:45:37;9.40;99.90
678;DHT22;321;48.814;9.132;2023-02-04T08:48:05;9.40;99.90
678;DHT22;321;48.814;9.132;2023-02-04T08:50:34;9.40;99.90
678;DHT22;321;48.814;9.132;2023-02-04T08:52:59;9.30;99.90
678;DHT22;321;48.814;9.132;2023-02-04T08:55:25;9.30;99.90
678;DHT22;321;48.814;9.132;2023-02-04T08:57:50;9.30;99.90
678;DHT22;321;48.814;9.132;2023-02-04T09:00:16;9.10;99.90
678;DHT22;321;48.814;9.132;2023-02-04T09:02:43;9.10;99.90
678;DHT22;321;48.814;9.132;2023-02-04T09:05:08;9.00;99.90
678;DHT22;321;48.814;9.132;2023-02-04T09:07:34;9.00;99.90
678;DHT22;321;48.814;9.132;2023-02-04T09:09:59;9.00;99.90
678;DHT22;321;48.814;9.132;2023-02-04T09:12:25;9.10;99.90
678;DHT22;321;48.814;9.132;2023-02-04T09:14:50;8.90;99.90
678;DHT22;321;48.814;9.132;2023-02-04T09:17:16;9.20;99.90
678;DHT22;321;48.814;9.132;2023-02-04T09:19:42;9.20;99.90
678;DHT22;321;48.814;9.132;2023-02-04T09:22:07;9.30;99.90
678;DHT22;321;48.814;9.132;2023-02-04T09:24:33;9.40;99.90
678;DHT22;321;48.814;9.132;2023-02-04T09:26:58;9.40;99.90
678;DHT22;321;48.814;9.132;2023-02-04T09:29:24;9.50;99.90
678;DHT22;321;48.814;9.132;2023-02-04T09:31:50;9.50;99.90
678;DHT22;321;48.814;9.132;2023-02-04T09:34:15;9.80;99.90
678;DHT22;321;48.814;9.132;2023-02-04T09:36:41;9.90;99.90
678;DHT22;321;48.814;9.132;2023-02-04T09:39:07;9.80;99.90
678;DHT22;321;48.814;9.132;2023-02-04T09:41:38;9.90;99.90
678;DHT22;321;48.814;9.132;2023-02-04T09:44:09;10.10;99.90
678;DHT22;321;48.814;9.132;2023-02-04T09:46:37;10.20;99.90
678;DHT22;321;48.814;9.132;2023-02-04T09:49:02;10.30;99.90
678;DHT22;321;48.814;9.132;2023-02-04T09:51:32;10.30;99.90
678;DHT22;321;48.814;9.132;2023-02-04T09:54:18;10.40;99.90
678;DHT22;321;48.814;9.132;2023-02-04T09:56:45;10.60;99.90
678;DHT22;321;48.814;9.132;2023-02-04T09:59:16;10.70;99.90
678;DHT22;321;48.814;9.132;2023-02-04T10:01:42;10.40;99.90
678;DHT22;321;48.814;9.132;2023-02-04T10:04:11;10.30;99.90
678;DHT22;321;48.814;9.132;2023-02-04T10:06:37;10.30;99.90
678;DHT22;321;48.814;9.132;2023-02-04T10:09:03;10.20;99.90
678;DHT22;321;48.814;9.132;2023-02-04T10:11:31;10.20;99.90
678;DHT22;321;48.814;9.132;2023-02-04T10:13:58;10.20;99.90
678;DHT22;321;48.814;9.132;2023-02-04T10:16:27;10.10;99.90
678;DHT22;321;48.814;9.132;2023-02-04T10:19:06;10.30;99.90
678;DHT22;321;48.814;9.132;2023-02-04T10:21:35;10.40;99.90
678;DHT22;321;48.814;9.132;2023-02-04T10:24:03;10.60;99.90
678;DHT22;321;48.814;9.132;2023-02-04T10:26:30;10.60;99.90
678;DHT22;321;48.814;9.132;2023-02-04T10:29:02;10.60;99.90
678;DHT22;321;48.814;9.132;2023-02-04T10:31:36;10.20;99.90
678;DHT22;321;48.814;9.132;2023-02-04T10:36:52;10.30;99.90
678;DHT22;321;48.814;9.132;2023-02-04T10:39:28;10.20;99.90
678;DHT22;321;48.814;9.132;2023-02-04T10:41:58;10.20;99.90
678;DHT22;321;48.814;9.132;2023-02-04T10:44:30;10.40;99.90
678;DHT22;321;48.814;9.132;2023-02-04T10:47:04;10.60;99.90
678;DHT22;321;48.814;9.132;2023-02-04T10:49:31;11.10;99.90
678;DHT22;321;48.814;9.132;2023-02-04T10:51:56;11.10;99.90
678;DHT22;321;48.814;9.132;2023-02-04T10:54:27;11.20;99.90
678;DHT22;321;48.814;9.132;2023-02-04T10:59:44;11.50;99.90
678;DHT22;321;48.814;9.132;2023-02-04T11:02:35;11.30;99.90
678;DHT22;321;48.814;9.132;2023-02-04T11:05:02;11.30;99.90
678;DHT22;321;48.814;9.132;2023-02-04T11:07:28;11.20;99.90
678;DHT22;321;48.814;9.132;2023-02-04T11:09:55;11.20;99.90
678;DHT22;321;48.814;9.132;2023-02-04T11:12:43;10.80;99.90
678;DHT22;321;48.814;9.132;2023-02-04T11:15:47;10.50;99.90
678;DHT22;321;48.814;9.132;2023-02-04T11:18:26;10.30;99.90
678;DHT22;321;48.814;9.132;2023-02-04T11:20:54;10.20;99.90
678;DHT22;321;48.814;9.132;2023-02-04T11:26:07;10.00;99.90
678;DHT22;321;48.814;9.132;2023-02-04T11:33:48;10.30;99.90
678;DHT22;321;48.814;9.132;2023-02-04T11:36:15;10.20;99.90
678;DHT22;321;48.814;9.132;2023-02-04T11:38:46;10.20;99.90
678;DHT22;321;48.814;9.132;2023-02-04T11:41:22;10.30;99.90
678;DHT22;321;48.814;9.132;2023-02-04T11:43:52;10.30;99.90
678;DHT22;321;48.814;9.132;2023-02-04T11:46:19;10.10;99.90
678;DHT22;321;48.814;9.132;2023-02-04T11:48:45;10.10;99.90
678;DHT22;321;48.814;9.132;2023-02-04T11:51:13;10.40;99.90
678;DHT22;321;48.814;9.132;2023-02-04T11:53:39;10.70;99.90
678;DHT22;321;48.814;9.132;2023-02-04T11:56:05;10.80;99.90
678;DHT22;321;48.814;9.132;2023-02-04T11:58:31;11.00;99.90
678;DHT22;321;48.814;9.132;2023-02-04T12:00:58;11.00;99.90
678;DHT22;321;48.814;9.132;2023-02-04T12:05:49;11.40;99.90
678;DHT22;321;48.814;9.132;2023-02-04T12:10:48;12.00;99.90
678;DHT22;321;48.814;9.132;2023-02-04T12:13:22;12.10;99.90
678;DHT22;321;48.814;9.132;2023-02-04T12:16:01;12.00;99.90
678;DHT22;321;48.814;9.132;2023-02-04T12:18:28;11.90;99.90
678;DHT22;321;48.814;9.132;2023-02-04T12:20:58;11.90;99.00
678;DHT22;321;48.814;9.132;2023-02-04T12:23:25;11.80;99.80
678;DHT22;321;48.814;9.132;2023-02-04T12:25:50;11.90;98.30
678;DHT22;321;48.814;9.132;2023-02-04T12:28:16;12.20;99.90
678;DHT22;321;48.814;9.132;2023-02-04T12:30:42;12.30;99.10
678;DHT22;321;48.814;9.132;2023-02-04T12:33:07;12.10;97.40
678;DHT22;321;48.814;9.132;2023-02-04T12:35:35;12.20;96.50
678;DHT22;321;48.814;9.132;2023-02-04T12:38:01;12.30;97.40
678;DHT22;321;48.814;9.132;2023-02-04T12:40:27;12.10;97.20
678;DHT22;321;48.814;9.132;2023-02-04T12:42:52;12.20;96.00
678;DHT22;321;48.814;9.132;2023-02-04T12:45:18;12.20;97.20
678;DHT22;321;48.814;9.132;2023-02-04T12:47:44;12.20;99.00
678;DHT22;321;48.814;9.132;2023-02-04T12:50:12;12.00;97.80
678;DHT22;321;48.814;9.132;2023-02-04T12:52:38;11.90;99.10
678;DHT22;321;48.814;9.132;2023-02-04T12:55:05;11.80;97.80
678;DHT22;321;48.814;9.132;2023-02-04T12:57:32;11.50;99.20
678;DHT22;321;48.814;9.132;2023-02-04T12:59:58;11.50;99.90
678;DHT22;321;48.814;9.132;2023-02-04T13:02:26;11.30;98.90
678;DHT22;321;48.814;9.132;2023-02-04T13:04:52;11.20;99.90
678;DHT22;321;48.814;9.132;2023-02-04T13:07:18;11.10;99.90
678;DHT22;321;48.814;9.132;2023-02-04T13:09:43;11.10;99.90
678;DHT22;321;48.814;9.132;2023-02-04T13:12:12;11.10;99.90
678;DHT22;321;48.814;9.132;2023-02-04T13:14:38;11.10;99.90
678;DHT22;321;48.814;9.132;2023-02-04T13:17:05;11.00;99.90
678;DHT22;321;48.814;9.132;2023-02-04T13:19:30;11.10;99.90
678;DHT22;321;48.814;9.132;2023-02-04T13:21:57;11.00;99.90
678;DHT22;321;48.814;9.132;2023-02-04T13:24:23;10.70;99.90
678;DHT22;321;48.814;9.132;2023-02-04T13:26:48;10.60;99.90
678;DHT22;321;48.814;9.132;2023-02-04T13:29:14;10.50;99.90
678;DHT22;321;48.814;9.132;2023-02-04T13:31:40;10.60;99.90
678;DHT22;321;48.814;9.132;2023-02-04T13:34:05;10.70;99.90
678;DHT22;321;48.814;9.132;2023-02-04T13:36:31;10.80;99.90
678;DHT22;321;48.814;9.132;2023-02-04T13:38:56;10.80;99.90
678;DHT22;321;48.814;9.132;2023-02-04T13:41:24;10.40;99.90
678;DHT22;321;48.814;9.132;2023-02-04T13:43:50;9.80;99.90
678;DHT22;321;48.814;9.132;2023-02-04T13:46:15;9.80;99.90
678;DHT22;321;48.814;9.132;2023-02-04T13:48:41;10.10;99.90
678;DHT22;321;48.814;9.132;2023-02-04T13:51:06;10.00;99.90
678;DHT22;321;48.814;9.132;2023-02-04T13:53:32;9.90;99.90
678;DHT22;321;48.814;9.132;2023-02-04T13:55:58;10.00;99.90
678;DHT22;321;48.814;9.132;2023-02-04T13:58:24;10.00;99.90
678;DHT22;321;48.814;9.132;2023-02-04T14:00:49;9.90;99.90
678;DHT22;321;48.814;9.132;2023-02-04T14:03:15;9.90;99.90
678;DHT22;321;48.814;9.132;2023-02-04T14:05:40;9.80;99.90
678;DHT22;321;48.814;9.132;2023-02-04T14:08:06;9.70;99.90
678;DHT22;321;48.814;9.132;2023-02-04T14:10:31;9.70;99.90
678;DHT22;321;48.814;9.132;2023-02-04T14:12:57;9.60;99.90
678;DHT22;321;48.814;9.132;2023-02-04T14:15:23;9.60;99.90
678;DHT22;321;48.814;9.132;2023-02-04T14:17:49;9.50;99.90
678;DHT22;321;48.814;9.132;2023-02-04T14:20:22;9.60;99.90
678;DHT22;321;48.814;9.132;2023-02-04T14:22:55;9.60;99.90
678;DHT22;321;48.814;9.132;2023-02-04T14:25:21;9.50;99.90
678;DHT22;321;48.814;9.132;2023-02-04T14:27:47;9.20;99.90
678;DHT22;321;48.814;9.132;2023-02-04T14:30:21;9.20;99.90
678;DHT22;321;48.814;9.132;2023-02-04T14:32:47;9.30;99.90
678;DHT22;321;48.814;9.132;2023-02-04T14:35:14;9.30;99.90
678;DHT22;321;48.814;9.132;2023-02-04T14:37:39;9.30;99.90
678;DHT22;321;48.814;9.132;2023-02-04T14:40:06;9.40;99.90
678;DHT22;321;48.814;9.132;2023-02-04T14:42:32;9.40;99.90
678;DHT22;321;48.814;9.132;2023-02-04T14:44:58;9.40;99.90
678;DHT22;321;48.814;9.132;2023-02-04T14:47:23;9.30;99.90
678;DHT22;321;48.814;9.132;2023-02-04T14:49:49;9.20;99.90
678;DHT22;321;48.814;9.132;2023-02-04T14:52:14;8.80;99.90
678;DHT22;321;48.814;9.132;2023-02-04T14:54:41;8.70;99.90
678;DHT22;321;48.814;9.132;2023-02-04T14:57:06;8.80;99.90
678;DHT22;321;48.814;9.132;2023-02-04T14:59:36;8.80;99.90
678;DHT22;321;48.814;9.132;2023-02-04T15:02:03;8.90;99.90
678;DHT22;321;48.814;9.132;2023-02-04T15:04:29;8.90;99.90
678;DHT22;321;48.814;9.132;2023-02-04T15:06:54;8.80;99.90
678;DHT22;321;48.814;9.132;2023-02-04T15:09:22;8.80;99.90
678;DHT22;321;48.814;9.132;2023-02-04T15:11:48;8.80;99.90
678;DHT22;321;48.814;9.132;2023-02-04T15:14:13;8.40;99.90
678;DHT22;321;48.814;9.132;2023-02-04T15:16:39;8.50;99.90
678;DHT22;321;48.814;9.132;2023-02-04T15:19:06;8.90;99.90
678;DHT22;321;48.814;9.132;2023-02-04T15:21:31;8.60;99.90
678;DHT22;321;48.814;9.132;2023-02-04T15:23:57;8.60;99.90
678;DHT22;321;48.814;9.132;2023-02-04T15:26:22;8.60;99.90
678;DHT22;321;48.814;9.132;2023-02-04T15:28:49;8.40;99.90
678;DHT22;321;48.814;9.132;2023-02-04T15:31:15;8.30;99.90
678;DHT22;321;48.814;9.132;2023-02-04T15:33:40;8.30;99.90
678;DHT22;321;48.814;9.132;2023-02-04T15:36:06;8.40;99.90
678;DHT22;321;48.814;9.132;2023-02-04T15:38:32;8.30;99.90
678;DHT22;321;48.814;9.132;2023-02-04T15:40:57;8.30;99.90
678;DHT22;321;48.814;9.132;2023-02-04T15:43:23;8.20;99.90
678;DHT22;321;48.814;9.132;2023-02-04T15:45:49;8.20;99.90
678;DHT22;321;48.814;9.132;2023-02-04T15:48:14;8.20;99.90
678;DHT22;321;48.814;9.132;2023-02-04T15:50:41;8.20;99.90
678;DHT22;321;48.814;9.132;2023-02-04T15:53:07;8.10;99.90
678;DHT22;321;48.814;9.132;2023-02-04T15:55:33;8.20;99.90
678;DHT22;321;48.814;9.132;2023-02-04T15:57:58;8.10;99.90
678;DHT22;321;48.814;9.132;2023-02-04T16:00:24;8.00;99.90
678;DHT22;321;48.814;9.132;2023-02-04T16:02:50;8.00;99.90
678;DHT22;321;48.814;9.132;2023-02-04T16:05:16;8.00;99.90
678;DHT22;321;48.814;9.132;2023-02-04T16:07:41;7.80;99.90
678;DHT22;321;48.814;9.132;2023-02-04T16:10:07;7.90;99.90
678;DHT22;321;48.814;9.132;2023-02-04T16:12:32;8.00;99.90
678;DHT22;321;48.814;9.132;2023-02-04T16:14:58;7.90;99.90
678;DHT22;321;48.814;9.132;2023-02-04T16:17:23;7.90;99.90
678;DHT22;321;48.814;9.132;2023-02-04T16:19:49;7.80;99.90
678;DHT22;321;48.814;9.132;2023-02-04T16:22:14;7.70;99.90
678;DHT22;321;48.814;9.132;2023-02-04T16:24:40;7.60;99.90
678;DHT22;321;48.814;9.132;2023-02-04T16:27:06;7.50;99.90
678;DHT22;321;48.814;9.132;2023-02-04T16:29:32;7.50;99.90
678;DHT22;321;48.814;9.132;2023-02-04T16:31:57;7.50;99.90
678;DHT22;321;48.814;9.132;2023-02-04T16:34:23;7.50;99.90
678;DHT22;321;48.814;9.132;2023-02-04T16:36:49;7.40;99.90
678;DHT22;321;48.814;9.132;2023-02-04T16:39:15;7.30;99.90
678;DHT22;321;48.814;9.132;2023-02-04T16:41:41;7.10;99.90
678;DHT22;321;48.814;9.132;2023-02-04T16:44:06;7.10;99.90
678;DHT22;321;48.814;9.132;2023-02-04T16:46:32;7.10;99.90
678;DHT22;321;48.814;9.132;2023-02-04T16:48:59;7.10;99.90
678;DHT22;321;48.814;9.132;2023-02-04T16:51:24;7.10;99.90
678;DHT22;321;48.814;9.132;2023-02-04T16:53:50;7.20;99.90
678;DHT22;321;48.814;9.132;2023-02-04T16:56:16;7.10;99.90
678;DHT22;321;48.814;9.132;2023-02-04T16:58:41;7.10;99.90
678;DHT22;321;48.814;9.132;2023-02-04T17:01:07;7.00;99.90
678;DHT22;321;48.814;9.132;2023-02-04T17:03:32;7.00;99.90